Terminal Aerodrome Forecast
Issued by NWS

Home | Current Version | Previous Version | Text Only | Print | Product List | Glossary On
Versions: 1 2 3 4 5 6 7 8 9 10 11 12 13 14 15
000
FTUS42 KMLB 050536
TAFISM
TAF
KISM 050536Z 0506/0606 00000KT P6SM SCT250
     FM051300 36004KT P6SM FEW030 SCT250
     FM051800 06008KT P6SM VCTS SCT040CB BKN080
      TEMPO 0518/0521 TS BKN035CB BKN070
     FM052200 06006KT P6SM SCT040 BKN120
     FM060300 05003KT P6SM BKN120 BKN200
      AMD NOT SKED TIL 051200=

USA.gov is the U.S. government's official web portal to all federal, state and local government web resources and services.